Time;durP1;ratioP1;P1;durP2;ratioP2;P2;SDS_P1;SDS_P2;PMS_P1;PMS_P2;Temp;Humidity;BMP_temperature;BMP_pressure;BME280_temperature;BME280_humidity;BME280_pressure;Samples;Min_cycle;Max_cycle;Signal;HPM_P1;HPM_P2
2023/04/28 00:02:21;;;;;;;15.10;9.70;;;12.40;70.60;;;;;;5065806;28;20483;-67
2023/04/28 00:05:02;;;;;;;15.60;9.40;;;12.40;70.70;;;;;;5065467;28;20548;-67
2023/04/28 00:07:36;;;;;;;16.47;9.40;;;12.50;70.80;;;;;;5065425;28;20464;-67
2023/04/28 00:10:06;;;;;;;13.80;9.03;;;12.50;70.70;;;;;;5070255;28;20448;-67
2023/04/28 00:12:36;;;;;;;14.47;9.03;;;12.40;70.70;;;;;;5069583;28;20542;-67
2023/04/28 00:15:12;;;;;;;14.70;9.20;;;12.40;70.70;;;;;;5067686;28;20459;-67
2023/04/28 00:17:44;;;;;;;12.47;8.87;;;12.40;70.80;;;;;;5066310;28;20463;-67
2023/04/28 00:20:16;;;;;;;21.53;9.63;;;12.40;70.80;;;;;;5068293;28;20557;-67
2023/04/28 00:23:00;;;;;;;18.30;9.50;;;12.40;70.80;;;;;;5066639;28;20983;-67
2023/04/28 00:25:39;;;;;;;15.90;10.43;;;12.40;70.80;;;;;;5068027;28;20803;-67
2023/04/28 00:28:16;;;;;;;18.37;11.20;;;12.50;70.90;;;;;;5066647;28;20456;-67
2023/04/28 00:31:12;;;;;;;16.87;11.70;;;12.40;70.90;;;;;;5064606;28;20505;-67
2023/04/28 00:33:45;;;;;;;17.43;9.73;;;12.40;70.90;;;;;;5065737;28;20563;-67
2023/04/28 00:36:30;;;;;;;17.37;10.20;;;12.40;71.00;;;;;;5066201;28;20498;-67
2023/04/28 00:39:03;;;;;;;16.37;10.33;;;12.40;71.10;;;;;;5067586;28;20461;-67
2023/04/28 00:41:36;;;;;;;13.93;9.47;;;12.40;71.10;;;;;;5064175;28;21172;-67
2023/04/28 00:44:22;;;;;;;12.90;9.60;;;12.40;71.10;;;;;;5065418;28;20473;-67
2023/04/28 00:47:02;;;;;;;16.93;9.70;;;12.40;71.20;;;;;;5066277;28;20486;-67
2023/04/28 00:49:39;;;;;;;16.43;10.03;;;12.40;71.20;;;;;;5064846;28;20522;-67
2023/04/28 00:52:11;;;;;;;13.90;9.53;;;12.40;71.20;;;;;;5067216;28;20460;-67
2023/04/28 00:54:56;;;;;;;13.93;8.50;;;12.40;71.30;;;;;;5069805;28;20472;-68
2023/04/28 00:57:24;;;;;;;16.23;9.17;;;12.40;71.40;;;;;;5078965;28;20458;-67
2023/04/28 01:00:00;;;;;;;13.50;9.07;;;12.40;71.40;;;;;;5069283;28;20496;-67
2023/04/28 01:02:35;;;;;;;14.30;9.60;;;12.40;71.50;;;;;;5070259;28;20474;-67
2023/04/28 01:05:10;;;;;;;14.90;9.27;;;12.40;71.50;;;;;;5068983;28;20460;-67
2023/04/28 01:07:50;;;;;;;14.47;9.53;;;12.40;71.60;;;;;;5062782;28;20491;-68
2023/04/28 01:13:19;;;;;;;16.43;10.10;;;12.40;71.70;;;;;;5068800;28;20522;-67
2023/04/28 01:15:59;;;;;;;14.30;9.87;;;12.40;71.70;;;;;;5067238;28;20472;-67
2023/04/28 01:18:31;;;;;;;14.20;9.20;;;12.30;71.80;;;;;;5068570;28;20457;-67
2023/04/28 01:21:01;;;;;;;20.33;9.80;;;12.30;71.90;;;;;;5067994;28;20582;-67
2023/04/28 01:23:29;;;;;;;12.77;9.40;;;12.30;71.90;;;;;;5065825;28;20469;-67
2023/04/28 01:26:05;;;;;;;15.77;9.40;;;12.30;71.90;;;;;;5066766;28;20544;-67
2023/04/28 01:28:37;;;;;;;15.20;9.57;;;12.30;72.00;;;;;;5086081;28;20486;-67
2023/04/28 01:31:10;;;;;;;14.07;9.20;;;12.30;72.00;;;;;;5065725;28;20475;-67
2023/04/28 01:33:43;;;;;;;17.70;11.33;;;12.30;72.00;;;;;;5065274;28;20489;-67
2023/04/28 01:36:21;;;;;;;16.00;11.10;;;12.30;72.10;;;;;;5067139;28;20467;-67
2023/04/28 01:38:56;;;;;;;19.80;10.63;;;12.30;72.10;;;;;;5079937;28;21077;-67
2023/04/28 01:41:33;;;;;;;15.77;10.20;;;12.30;72.20;;;;;;5069616;28;21999;-67
2023/04/28 01:44:07;;;;;;;14.07;10.00;;;12.30;72.30;;;;;;5074050;28;20808;-67
2023/04/28 01:46:41;;;;;;;13.17;9.43;;;12.30;72.50;;;;;;5070617;28;20472;-67
2023/04/28 01:49:15;;;;;;;21.57;10.63;;;12.30;72.50;;;;;;5071868;28;20470;-67
2023/04/28 01:51:47;;;;;;;16.27;10.20;;;12.30;72.50;;;;;;5070432;28;20461;-68
2023/04/28 01:54:30;;;;;;;17.40;10.80;;;12.40;72.50;;;;;;5070332;28;20463;-67
2023/04/28 01:57:11;;;;;;;18.00;10.87;;;12.40;72.50;;;;;;5082525;28;20488;-67
2023/04/28 01:59:40;;;;;;;14.37;10.23;;;12.40;72.60;;;;;;5064030;28;20464;-67
2023/04/28 02:02:13;;;;;;;15.60;10.27;;;12.40;72.50;;;;;;5066762;28;20477;-68
2023/04/28 02:04:47;;;;;;;26.73;10.83;;;12.40;72.60;;;;;;5068690;28;20457;-67
2023/04/28 02:07:20;;;;;;;15.73;10.13;;;12.40;72.60;;;;;;5068279;28;20478;-67
2023/04/28 02:09:51;;;;;;;15.60;10.23;;;12.40;72.70;;;;;;5070069;28;20936;-67
2023/04/28 02:12:34;;;;;;;18.00;11.50;;;12.40;72.80;;;;;;5072861;28;20490;-68
2023/04/28 02:15:15;;;;;;;14.77;10.50;;;12.40;72.90;;;;;;5071499;28;20466;-67
2023/04/28 02:17:50;;;;;;;15.10;10.40;;;12.40;72.90;;;;;;5067952;28;20447;-67
2023/04/28 02:20:25;;;;;;;13.73;10.43;;;12.30;73.00;;;;;;5085994;28;20504;-67
2023/04/28 02:23:01;;;;;;;15.30;11.10;;;12.30;73.00;;;;;;5070510;28;20543;-67
2023/04/28 02:25:33;;;;;;;17.60;10.40;;;12.30;73.10;;;;;;5071663;28;20457;-68
2023/04/28 02:28:24;;;;;;;14.43;9.93;;;12.40;73.10;;;;;;5067546;28;20523;-68
2023/04/28 02:31:09;;;;;;;14.10;10.43;;;12.40;73.20;;;;;;5069323;28;21020;-68
2023/04/28 02:33:45;;;;;;;18.83;11.33;;;12.30;73.20;;;;;;5069924;28;20800;-67
2023/04/28 02:36:18;;;;;;;14.87;10.43;;;12.30;73.20;;;;;;5068024;28;20590;-68
2023/04/28 02:38:55;;;;;;;16.90;10.17;;;12.30;73.20;;;;;;5065102;28;20471;-67
2023/04/28 02:41:36;;;;;;;20.60;11.00;;;12.30;73.30;;;;;;5067291;28;20466;-67
2023/04/28 02:44:13;;;;;;;13.97;10.37;;;12.30;73.30;;;;;;5070744;28;20464;-67
2023/04/28 02:46:49;;;;;;;14.00;10.30;;;12.30;73.40;;;;;;5068129;28;20459;-67
2023/04/28 02:49:34;;;;;;;15.97;10.63;;;12.30;73.50;;;;;;5069206;28;20466;-67
2023/04/28 02:52:14;;;;;;;15.40;11.80;;;12.30;73.50;;;;;;5066654;28;20468;-67
2023/04/28 02:54:47;;;;;;;16.23;11.70;;;12.30;73.60;;;;;;5070148;28;20488;-67
2023/04/28 02:57:20;;;;;;;14.80;10.17;;;12.30;73.60;;;;;;5066864;28;20561;-67
2023/04/28 02:59:54;;;;;;;12.70;9.73;;;12.30;73.70;;;;;;5084845;28;20474;-67
2023/04/28 03:02:33;;;;;;;14.40;10.93;;;12.30;73.80;;;;;;5066193;28;20999;-67
2023/04/28 03:05:12;;;;;;;16.33;10.27;;;12.30;73.80;;;;;;5070180;28;20462;-67
2023/04/28 03:07:52;;;;;;;17.40;10.50;;;12.30;73.80;;;;;;5071895;28;20494;-67
2023/04/28 03:10:26;;;;;;;16.13;10.70;;;12.30;73.90;;;;;;5069333;28;20467;-68
2023/04/28 03:12:56;;;;;;;14.73;10.73;;;12.30;74.00;;;;;;5062792;28;20471;-67
2023/04/28 03:15:35;;;;;;;13.33;10.13;;;12.20;74.00;;;;;;5066659;28;20460;-67
2023/04/28 03:18:11;;;;;;;11.83;9.37;;;12.20;74.20;;;;;;5069138;28;20504;-67
2023/04/28 03:20:44;;;;;;;14.77;11.50;;;12.20;74.20;;;;;;5069624;28;20496;-67
2023/04/28 03:23:23;;;;;;;17.90;10.37;;;12.30;74.30;;;;;;5068090;28;20765;-67
2023/04/28 03:25:56;;;;;;;14.53;9.50;;;12.30;74.30;;;;;;5068085;28;20540;-67
2023/04/28 03:28:28;;;;;;;13.40;8.97;;;12.20;74.40;;;;;;5065111;28;20467;-67
2023/04/28 03:31:13;;;;;;;12.47;8.20;;;12.30;74.40;;;;;;5067531;28;20466;-67
2023/04/28 03:33:46;;;;;;;10.77;8.50;;;12.30;74.50;;;;;;5080420;28;20460;-67
2023/04/28 03:39:12;;;;;;;13.60;9.67;;;12.20;74.50;;;;;;5062047;28;21230;-67
2023/04/28 03:41:52;;;;;;;17.13;11.20;;;12.20;74.60;;;;;;5079364;28;20453;-67
2023/04/28 03:44:51;;;;;;;13.63;10.17;;;12.20;74.70;;;;;;5039547;28;20502;-67
2023/04/28 03:47:31;;;;;;;15.33;10.10;;;12.20;74.70;;;;;;5067193;28;20498;-67
2023/04/28 03:50:04;;;;;;;13.57;10.33;;;12.20;74.70;;;;;;5069054;28;20480;-66
2023/04/28 03:52:44;;;;;;;15.00;11.23;;;12.20;74.70;;;;;;5065449;28;20510;-67
2023/04/28 03:55:19;;;;;;;14.90;10.83;;;12.20;74.80;;;;;;5066943;28;20991;-67
2023/04/28 03:57:50;;;;;;;16.10;10.40;;;12.20;74.80;;;;;;5066916;28;20469;-67
2023/04/28 04:00:21;;;;;;;12.93;9.73;;;12.20;74.90;;;;;;5063360;28;20469;-67
2023/04/28 04:02:59;;;;;;;13.57;9.07;;;12.20;74.90;;;;;;5066512;28;20548;-68
2023/04/28 04:05:32;;;;;;;22.67;9.80;;;12.20;75.10;;;;;;5053174;28;20464;-67
2023/04/28 04:08:11;;;;;;;15.77;10.73;;;12.20;75.10;;;;;;5068291;28;21126;-67
2023/04/28 04:10:48;;;;;;;18.20;10.03;;;12.20;75.20;;;;;;5062699;28;20464;-67
2023/04/28 04:13:21;;;;;;;13.80;10.00;;;12.20;75.30;;;;;;5062838;28;20464;-67
2023/04/28 04:16:02;;;;;;;13.30;10.20;;;12.20;75.30;;;;;;5065342;28;20925;-67
2023/04/28 04:18:37;;;;;;;16.27;10.60;;;12.20;75.40;;;;;;5066614;28;20457;-67
2023/04/28 04:21:26;;;;;;;17.83;12.07;;;12.20;75.50;;;;;;5067371;28;20785;-67
2023/04/28 04:23:56;;;;;;;16.33;12.03;;;12.20;75.50;;;;;;5083259;28;20517;-67
2023/04/28 04:26:36;;;;;;;15.97;11.20;;;12.20;75.60;;;;;;5066392;28;20529;-67
2023/04/28 04:29:32;;;;;;;15.90;11.43;;;12.20;75.70;;;;;;5066024;28;20550;-67
2023/04/28 04:32:10;;;;;;;15.23;11.20;;;12.20;75.80;;;;;;5064808;28;20477;-67
2023/04/28 04:34:49;;;;;;;13.90;10.20;;;12.20;75.80;;;;;;5064734;28;22160;-66
2023/04/28 04:37:22;;;;;;;15.60;11.30;;;12.20;75.90;;;;;;5065123;28;20526;-67
2023/04/28 04:40:02;;;;;;;18.40;11.50;;;12.20;75.90;;;;;;5069436;28;20473;-67
2023/04/28 04:43:02;;;;;;;18.60;10.90;;;12.20;75.90;;;;;;5061784;28;20567;-67
2023/04/28 04:45:43;;;;;;;17.27;11.80;;;12.20;75.90;;;;;;5062217;28;20569;-67
2023/04/28 04:48:19;;;;;;;16.40;11.30;;;12.20;75.90;;;;;;5062406;28;20476;-71
2023/04/28 04:51:02;;;;;;;15.23;11.27;;;12.20;76.00;;;;;;5082417;28;20475;-66
2023/04/28 04:53:34;;;;;;;14.93;11.90;;;12.20;76.20;;;;;;5067362;28;20558;-67
2023/04/28 04:56:06;;;;;;;23.60;12.97;;;12.20;76.20;;;;;;5066059;28;20591;-67
2023/04/28 04:58:40;;;;;;;22.10;12.50;;;12.20;76.30;;;;;;5082327;28;20456;-67
2023/04/28 05:01:41;;;;;;;17.80;12.17;;;12.20;76.30;;;;;;5064311;28;20918;-66
2023/04/28 05:04:12;;;;;;;17.57;13.00;;;12.20;76.40;;;;;;5066480;28;20781;-67
2023/04/28 05:06:48;;;;;;;14.40;12.13;;;12.20;76.40;;;;;;5067463;28;20456;-67
2023/04/28 05:09:29;;;;;;;14.00;11.40;;;12.20;76.50;;;;;;5064266;28;20475;-67
2023/04/28 05:14:48;;;;;;;18.70;12.40;;;12.30;76.60;;;;;;5067526;28;20822;-67
2023/04/28 05:17:30;;;;;;;19.30;13.43;;;12.30;76.60;;;;;;5081137;28;20859;-67
2023/04/28 05:20:07;;;;;;;16.20;12.07;;;12.30;76.70;;;;;;5068998;28;20570;-66
2023/04/28 05:22:44;;;;;;;16.50;13.50;;;12.30;76.80;;;;;;5059767;28;20873;-66
2023/04/28 05:25:18;;;;;;;16.67;13.87;;;12.30;76.80;;;;;;5066146;28;20467;-67
2023/04/28 05:27:52;;;;;;;20.23;13.13;;;12.30;76.90;;;;;;5064824;28;20474;-66
2023/04/28 05:30:28;;;;;;;18.00;13.43;;;12.30;77.00;;;;;;5065953;28;20470;-67
2023/04/28 05:33:03;;;;;;;18.20;13.80;;;12.30;77.10;;;;;;5063759;28;20502;-66
2023/04/28 05:35:32;;;;;;;19.10;13.80;;;12.30;77.10;;;;;;5064594;28;20571;-66
2023/04/28 05:38:05;;;;;;;21.57;14.47;;;12.30;77.20;;;;;;5066540;28;20472;-66
2023/04/28 05:40:37;;;;;;;21.37;17.60;;;12.30;77.30;;;;;;5066537;28;20487;-66
2023/04/28 05:43:15;;;;;;;20.00;14.60;;;12.30;77.40;;;;;;5064421;28;20933;-66
2023/04/28 05:45:51;;;;;;;19.13;14.00;;;12.30;77.40;;;;;;5066601;28;20648;-67
2023/04/28 05:48:23;;;;;;;20.97;15.10;;;12.40;77.50;;;;;;5067035;28;20472;-67
2023/04/28 05:50:54;;;;;;;19.50;13.73;;;12.30;77.50;;;;;;5065633;28;20466;-67
2023/04/28 05:53:35;;;;;;;18.30;14.23;;;12.30;77.70;;;;;;5079146;28;20925;-67
2023/04/28 05:56:09;;;;;;;17.67;13.70;;;12.40;77.70;;;;;;5077930;28;20461;-67
2023/04/28 05:58:49;;;;;;;18.00;13.57;;;12.40;77.70;;;;;;5063258;28;20457;-66
2023/04/28 06:01:31;;;;;;;18.40;13.43;;;12.40;77.70;;;;;;5066430;28;20576;-67
2023/04/28 06:04:03;;;;;;;21.30;14.50;;;12.40;77.80;;;;;;5064206;28;20468;-66
2023/04/28 06:06:38;;;;;;;19.80;14.10;;;12.40;77.80;;;;;;5063761;28;20465;-66
2023/04/28 06:09:15;;;;;;;22.80;15.03;;;12.40;77.80;;;;;;5064620;28;20465;-66
2023/04/28 06:11:47;;;;;;;22.07;15.17;;;12.40;77.90;;;;;;5063895;28;20476;-67
2023/04/28 06:14:25;;;;;;;22.00;16.40;;;12.40;78.00;;;;;;5082498;28;20454;-66
2023/04/28 06:16:59;;;;;;;22.03;15.03;;;12.50;78.10;;;;;;5065914;28;20472;-66
2023/04/28 06:19:33;;;;;;;22.93;15.87;;;12.50;78.10;;;;;;5068650;28;20467;-66
2023/04/28 06:22:12;;;;;;;19.20;14.63;;;12.40;78.20;;;;;;5068154;28;20460;-67
2023/04/28 06:24:55;;;;;;;21.73;16.40;;;12.40;78.30;;;;;;5064807;28;20464;-66
2023/04/28 06:27:35;;;;;;;19.07;14.80;;;12.40;78.40;;;;;;5068213;28;20479;-66
2023/04/28 06:30:20;;;;;;;21.40;15.30;;;12.40;78.40;;;;;;5069762;28;20486;-66
2023/04/28 06:32:59;;;;;;;21.47;15.13;;;12.50;78.40;;;;;;5067493;28;21043;-66
2023/04/28 06:35:35;;;;;;;23.60;15.30;;;12.50;78.40;;;;;;5069215;28;20463;-67
2023/04/28 06:38:11;;;;;;;23.73;16.57;;;12.50;78.50;;;;;;5069982;28;20456;-67
2023/04/28 06:40:45;;;;;;;20.50;14.73;;;12.40;78.50;;;;;;5067280;28;20803;-67
2023/04/28 06:43:18;;;;;;;24.03;16.57;;;12.50;78.50;;;;;;5060664;28;20464;-66
2023/04/28 06:46:05;;;;;;;21.07;16.10;;;12.40;78.50;;;;;;5068894;28;20584;-66
2023/04/28 06:48:42;;;;;;;24.63;17.13;;;12.40;78.50;;;;;;5072415;28;20660;-66
2023/04/28 06:51:17;;;;;;;26.10;18.00;;;12.40;78.60;;;;;;5068765;28;21105;-67
2023/04/28 06:53:52;;;;;;;21.87;17.67;;;12.30;78.60;;;;;;5068029;28;20463;-66
2023/04/28 06:56:38;;;;;;;25.87;17.60;;;12.30;78.70;;;;;;5061706;28;20864;-66
2023/04/28 06:59:08;;;;;;;22.60;15.20;;;12.30;78.80;;;;;;5063103;28;20449;-66
2023/04/28 07:01:40;;;;;;;21.87;17.70;;;12.30;78.90;;;;;;5066026;28;21119;-66
2023/04/28 07:04:10;;;;;;;23.77;17.10;;;12.30;78.90;;;;;;5070351;28;20456;-66
2023/04/28 07:06:49;;;;;;;28.13;16.90;;;12.30;79.00;;;;;;5071418;28;20580;-67
2023/04/28 07:09:20;;;;;;;23.57;17.30;;;12.30;79.00;;;;;;5070606;28;20514;-66
2023/04/28 07:11:59;;;;;;;23.47;17.50;;;12.30;79.00;;;;;;5070208;28;20833;-66
2023/04/28 07:14:33;;;;;;;24.43;17.63;;;12.20;79.10;;;;;;5070747;28;20458;-67
2023/04/28 07:17:15;;;;;;;23.37;16.43;;;12.20;79.20;;;;;;5069878;28;20901;-66
2023/04/28 07:19:52;;;;;;;25.73;17.23;;;12.20;79.30;;;;;;5069353;28;20485;-66
2023/04/28 07:22:25;;;;;;;25.50;16.40;;;12.30;79.30;;;;;;5070291;28;20559;-67
2023/04/28 07:24:58;;;;;;;21.33;16.40;;;12.30;79.40;;;;;;5072640;28;20454;-66
2023/04/28 07:27:36;;;;;;;21.90;17.90;;;12.30;79.50;;;;;;5068151;28;20456;-66
2023/04/28 07:30:08;;;;;;;23.07;16.87;;;12.30;79.50;;;;;;5069321;28;20492;-66
2023/04/28 07:32:54;;;;;;;24.80;17.60;;;12.30;79.40;;;;;;5069308;28;20497;-66
2023/04/28 07:35:29;;;;;;;25.13;18.27;;;12.30;79.50;;;;;;5070779;28;20534;-66
2023/04/28 07:37:59;;;;;;;24.90;20.03;;;12.30;79.50;;;;;;5069060;28;20806;-67
2023/04/28 07:40:29;;;;;;;28.70;19.43;;;12.30;79.60;;;;;;5069874;28;20951;-66
2023/04/28 07:43:08;;;;;;;34.77;24.27;;;12.30;79.70;;;;;;5067976;28;20448;-66
2023/04/28 07:45:44;;;;;;;28.77;21.03;;;12.30;79.70;;;;;;5069054;28;20486;-67
2023/04/28 07:48:18;;;;;;;26.80;21.17;;;12.30;79.70;;;;;;5069853;28;20924;-66
2023/04/28 07:50:57;;;;;;;37.07;27.73;;;12.20;79.80;;;;;;5069836;28;20772;-66
2023/04/28 07:53:30;;;;;;;35.90;26.83;;;12.20;79.80;;;;;;5065408;28;20474;-67
2023/04/28 07:56:13;;;;;;;42.53;27.03;;;12.10;80.00;;;;;;5069002;28;20447;-67
2023/04/28 07:58:50;;;;;;;32.97;23.60;;;12.00;80.20;;;;;;5069164;28;20477;-66
2023/04/28 08:01:30;;;;;;;36.80;24.30;;;12.10;80.40;;;;;;5070236;28;20482;-67
2023/04/28 08:04:11;;;;;;;32.73;24.47;;;12.10;80.50;;;;;;5069645;28;20486;-67
2023/04/28 08:06:52;;;;;;;38.83;29.73;;;12.00;80.50;;;;;;5068953;28;20455;-67
2023/04/28 08:09:27;;;;;;;41.13;30.40;;;12.00;80.60;;;;;;5069725;28;20505;-67
2023/04/28 08:12:00;;;;;;;34.53;25.93;;;12.00;80.80;;;;;;5065565;28;20775;-66
2023/04/28 08:14:34;;;;;;;41.23;27.00;;;12.10;81.10;;;;;;5070197;28;20460;-67
2023/04/28 08:17:11;;;;;;;37.23;27.23;;;12.10;81.20;;;;;;5070192;28;20883;-67
2023/04/28 08:19:45;;;;;;;36.50;25.57;;;12.10;81.20;;;;;;5065140;28;20918;-66
2023/04/28 08:22:19;;;;;;;35.67;24.57;;;12.20;81.20;;;;;;5068661;28;20969;-68
2023/04/28 08:24:59;;;;;;;39.13;23.60;;;12.20;81.20;;;;;;5069368;28;20464;-67
2023/04/28 08:27:36;;;;;;;28.30;22.00;;;12.20;81.30;;;;;;5068435;28;20467;-67
2023/04/28 08:30:15;;;;;;;27.47;22.03;;;12.20;81.30;;;;;;5068784;28;20857;-68
2023/04/28 08:32:49;;;;;;;33.20;22.27;;;12.20;81.30;;;;;;5066694;28;20511;-67
2023/04/28 08:35:19;;;;;;;29.43;24.70;;;12.20;81.40;;;;;;5067051;28;20467;-67
2023/04/28 08:37:57;;;;;;;30.30;23.70;;;12.20;81.50;;;;;;5068350;28;20998;-67
2023/04/28 08:40:34;;;;;;;31.27;24.67;;;12.20;81.50;;;;;;5072039;28;20483;-66
2023/04/28 08:43:07;;;;;;;44.03;33.33;;;12.30;81.60;;;;;;5069929;28;20445;-67
2023/04/28 08:45:45;;;;;;;41.10;27.87;;;12.30;81.70;;;;;;5066350;28;20458;-66
2023/04/28 08:48:22;;;;;;;37.70;28.53;;;12.30;81.70;;;;;;5069010;28;20758;-66
2023/04/28 08:50:57;;;;;;;40.93;32.13;;;12.40;81.80;;;;;;5067423;28;20573;-66
2023/04/28 08:53:31;;;;;;;42.43;31.57;;;12.40;81.90;;;;;;5067361;28;20460;-66
2023/04/28 08:56:38;;;;;;;37.47;30.07;;;12.40;82.10;;;;;;5066165;28;20552;-66
2023/04/28 08:59:12;;;;;;;42.87;32.00;;;12.40;82.30;;;;;;5067125;28;20496;-66
2023/04/28 09:01:51;;;;;;;42.87;30.40;;;12.40;82.40;;;;;;5065523;28;20487;-66
2023/04/28 09:04:33;;;;;;;52.93;34.83;;;12.50;82.50;;;;;;5065590;28;20460;-66
2023/04/28 09:07:16;;;;;;;51.60;33.60;;;12.50;82.60;;;;;;5070190;28;20472;-66
2023/04/28 09:09:49;;;;;;;46.07;34.13;;;12.60;82.70;;;;;;5065618;28;20552;-66
2023/04/28 09:12:40;;;;;;;37.70;28.43;;;12.70;82.70;;;;;;5064329;28;20451;-68
2023/04/28 09:15:25;;;;;;;31.77;24.37;;;12.80;83.00;;;;;;5067271;28;20457;-66
2023/04/28 09:18:18;;;;;;;36.60;23.13;;;12.90;82.90;;;;;;5067698;28;20971;-66
2023/04/28 09:20:56;;;;;;;31.47;21.70;;;13.00;82.90;;;;;;5068978;28;20832;-66
2023/04/28 09:23:32;;;;;;;29.83;20.30;;;13.00;82.80;;;;;;5067214;28;20461;-66
2023/04/28 09:26:06;;;;;;;26.93;19.87;;;13.10;82.60;;;;;;5067361;28;20484;-66
2023/04/28 09:28:41;;;;;;;26.13;19.30;;;13.20;82.60;;;;;;5063394;28;20453;-67
2023/04/28 09:31:29;;;;;;;24.13;18.80;;;13.20;82.60;;;;;;5081245;28;20560;-68
2023/04/28 09:34:11;;;;;;;30.70;22.40;;;13.30;82.40;;;;;;5064584;28;20657;-66
2023/04/28 09:36:51;;;;;;;28.97;23.33;;;13.30;82.40;;;;;;5070259;28;20868;-66
2023/04/28 09:39:32;;;;;;;26.00;20.27;;;13.20;82.40;;;;;;5069197;28;20542;-67
2023/04/28 09:42:04;;;;;;;29.20;22.13;;;13.20;82.60;;;;;;5065317;28;20938;-67
2023/04/28 09:44:52;;;;;;;27.67;21.50;;;13.20;82.50;;;;;;5067399;28;20531;-68
2023/04/28 09:47:31;;;;;;;30.00;22.67;;;13.20;82.60;;;;;;5068843;28;20457;-66
2023/04/28 09:50:13;;;;;;;29.07;21.77;;;13.30;82.60;;;;;;5068774;28;20460;-66
2023/04/28 09:52:58;;;;;;;28.97;22.37;;;13.30;82.60;;;;;;5068305;28;20441;-66
2023/04/28 09:55:35;;;;;;;33.83;23.27;;;13.30;82.40;;;;;;5070222;28;20503;-66
2023/04/28 09:58:15;;;;;;;26.10;22.13;;;13.30;82.60;;;;;;5068406;28;20469;-66
2023/04/28 10:00:47;;;;;;;27.87;21.97;;;13.30;82.40;;;;;;5067026;28;20473;-68
2023/04/28 10:03:28;;;;;;;33.00;23.00;;;13.40;82.40;;;;;;5071967;28;20500;-66
2023/04/28 10:06:09;;;;;;;33.37;22.80;;;13.40;82.60;;;;;;5072848;28;20544;-66
2023/04/28 10:08:41;;;;;;;26.40;20.47;;;13.40;82.60;;;;;;5073780;28;20564;-66
2023/04/28 10:11:15;;;;;;;27.63;21.97;;;13.40;82.60;;;;;;5070675;28;20518;-67
2023/04/28 10:14:00;;;;;;;27.60;21.73;;;13.40;82.60;;;;;;5072347;28;20452;-67
2023/04/28 10:16:36;;;;;;;27.00;21.57;;;13.50;82.60;;;;;;5072850;28;20461;-67
2023/04/28 10:19:21;;;;;;;31.70;23.17;;;13.40;82.60;;;;;;5072903;28;20831;-66
2023/04/28 10:22:26;;;;;;;35.90;26.40;;;13.40;82.60;;;;;;5072703;28;20463;-66
2023/04/28 10:25:30;;;;;;;29.60;24.73;;;13.40;82.80;;;;;;5069946;28;20742;-66
2023/04/28 10:28:05;;;;;;;29.80;22.90;;;13.40;82.90;;;;;;5012542;28;20458;-66
2023/04/28 10:30:38;;;;;;;33.17;24.43;;;13.40;82.90;;;;;;5070817;28;20489;-67
2023/04/28 10:33:28;;;;;;;31.40;24.10;;;13.40;83.00;;;;;;5071221;28;20777;-66
2023/04/28 10:36:06;;;;;;;30.40;23.77;;;13.40;83.10;;;;;;5070529;28;20924;-67
2023/04/28 10:42:05;;;;;;;32.57;23.93;;;13.50;83.10;;;;;;5070312;28;20512;-67
2023/04/28 10:44:43;;;;;;;29.87;22.43;;;13.50;83.00;;;;;;5065617;28;20458;-66
2023/04/28 10:47:23;;;;;;;37.43;24.80;;;13.60;83.00;;;;;;5070994;28;20824;-67
2023/04/28 10:50:09;;;;;;;29.40;22.53;;;13.60;83.00;;;;;;5070885;28;20497;-66
2023/04/28 10:52:55;;;;;;;26.03;21.37;;;13.70;82.90;;;;;;5068255;28;20492;-66
2023/04/28 10:55:43;;;;;;;28.03;20.57;;;13.60;82.90;;;;;;5066453;28;20477;-66
2023/04/28 10:58:38;;;;;;;31.03;24.60;;;13.70;82.90;;;;;;5069187;28;20506;-66
2023/04/28 11:01:30;;;;;;;33.47;24.60;;;13.70;82.90;;;;;;5070660;28;21130;-67
2023/04/28 11:04:11;;;;;;;27.33;22.57;;;13.70;83.00;;;;;;5070009;28;20499;-66
2023/04/28 11:06:49;;;;;;;35.07;26.03;;;13.70;83.00;;;;;;5068092;28;20498;-66
2023/04/28 11:09:58;;;;;;;27.40;22.70;;;13.70;83.10;;;;;;5070583;28;20461;-66
2023/04/28 11:13:32;;;;;;;28.43;21.50;;;13.80;83.20;;;;;;5067870;28;21103;-66
2023/04/28 11:16:23;;;;;;;28.03;21.40;;;13.90;83.10;;;;;;5064023;28;20486;-67
2023/04/28 11:19:04;;;;;;;28.00;21.30;;;14.00;83.10;;;;;;5067419;28;20483;-66
2023/04/28 11:21:37;;;;;;;30.33;22.23;;;14.10;83.10;;;;;;5066485;28;20458;-66
2023/04/28 11:24:14;;;;;;;30.07;21.87;;;14.10;83.10;;;;;;5067200;28;20469;-66
2023/04/28 11:26:53;;;;;;;28.00;21.60;;;14.20;83.20;;;;;;5069594;28;20465;-66
2023/04/28 11:29:35;;;;;;;28.60;23.67;;;14.30;83.20;;;;;;5072382;28;20742;-67
2023/04/28 11:32:12;;;;;;;30.47;24.87;;;14.40;83.20;;;;;;5070939;28;20881;-66
2023/04/28 11:34:52;;;;;;;29.50;24.50;;;14.40;83.30;;;;;;5072731;28;20489;-66
2023/04/28 11:37:26;;;;;;;28.97;24.43;;;14.50;83.40;;;;;;5070862;28;20491;-66
2023/04/28 11:39:58;;;;;;;31.70;24.80;;;14.60;83.40;;;;;;5069588;28;20467;-65
2023/04/28 11:42:40;;;;;;;27.60;23.73;;;14.70;83.40;;;;;;5070263;28;20453;-65
2023/04/28 11:45:21;;;;;;;31.80;23.60;;;14.80;83.60;;;;;;5069812;28;20964;-65
2023/04/28 11:48:04;;;;;;;25.63;20.70;;;14.90;83.70;;;;;;5074132;28;20539;-65
2023/04/28 11:50:41;;;;;;;27.53;23.10;;;14.90;83.60;;;;;;5070819;28;20531;-66
2023/04/28 11:53:12;;;;;;;30.40;24.40;;;14.90;83.60;;;;;;5066499;28;20499;-66
2023/04/28 11:55:42;;;;;;;34.73;28.40;;;14.90;83.70;;;;;;5067340;28;20546;-65
2023/04/28 11:58:26;;;;;;;32.10;25.70;;;14.90;83.80;;;;;;5070281;28;20849;-65
2023/04/28 12:01:11;;;;;;;33.00;25.30;;;14.80;84.10;;;;;;5049443;28;20471;-66
2023/04/28 12:03:45;;;;;;;33.17;25.30;;;14.90;84.20;;;;;;5069093;28;20465;-65
2023/04/28 12:06:19;;;;;;;33.20;26.03;;;14.90;84.20;;;;;;5069327;28;20461;-66
2023/04/28 12:09:03;;;;;;;37.23;26.97;;;15.00;84.20;;;;;;5071561;28;20462;-65
2023/04/28 12:11:38;;;;;;;32.37;23.37;;;15.10;84.20;;;;;;5067948;28;20523;-66
2023/04/28 12:14:16;;;;;;;32.40;23.93;;;15.10;84.10;;;;;;5068312;28;20465;-66
2023/04/28 12:16:50;;;;;;;28.00;23.00;;;15.20;84.00;;;;;;5068371;28;20507;-66
2023/04/28 12:19:48;;;;;;;27.90;22.43;;;15.20;84.00;;;;;;5069259;28;20491;-65
2023/04/28 12:22:22;;;;;;;32.10;25.00;;;15.20;84.10;;;;;;5066874;28;20534;-65
2023/04/28 12:25:07;;;;;;;27.00;22.40;;;15.30;84.20;;;;;;5067694;28;20521;-65
2023/04/28 12:27:40;;;;;;;29.97;23.60;;;15.30;84.30;;;;;;5071755;28;20454;-66
2023/04/28 12:30:33;;;;;;;28.60;23.93;;;15.40;84.50;;;;;;5067247;28;20476;-66
2023/04/28 12:33:23;;;;;;;26.37;22.10;;;15.60;84.50;;;;;;5068756;28;20576;-66
2023/04/28 12:36:04;;;;;;;25.70;21.20;;;15.60;84.20;;;;;;5067970;28;20518;-65
2023/04/28 12:38:38;;;;;;;25.13;21.27;;;15.70;84.00;;;;;;5067775;28;20529;-66
2023/04/28 12:41:18;;;;;;;28.57;21.80;;;15.70;84.00;;;;;;5067958;28;20464;-65
2023/04/28 12:43:59;;;;;;;26.87;22.20;;;15.60;84.20;;;;;;5069393;28;21236;-66
2023/04/28 12:46:34;;;;;;;30.87;22.30;;;15.70;84.30;;;;;;5066265;28;20464;-65
2023/04/28 12:49:08;;;;;;;30.73;22.17;;;15.70;84.50;;;;;;5070485;28;20454;-65
2023/04/28 12:51:42;;;;;;;28.47;20.63;;;15.80;84.30;;;;;;5070186;28;20536;-66
2023/04/28 12:54:19;;;;;;;29.00;20.60;;;15.90;84.30;;;;;;5065668;28;20842;-66
2023/04/28 12:56:53;;;;;;;28.77;22.63;;;15.90;84.10;;;;;;5070369;28;20458;-66
2023/04/28 12:59:27;;;;;;;30.50;22.17;;;16.00;84.10;;;;;;5066492;28;20501;-66
2023/04/28 13:02:02;;;;;;;26.50;20.60;;;16.00;84.10;;;;;;5067493;28;20472;-65
2023/04/28 13:04:35;;;;;;;21.70;18.60;;;16.00;84.30;;;;;;5066488;28;20454;-65
2023/04/28 13:07:09;;;;;;;21.10;16.97;;;16.00;84.50;;;;;;5068611;28;20454;-65
2023/04/28 13:09:46;;;;;;;20.50;16.90;;;16.10;84.70;;;;;;5068854;28;20472;-65
2023/04/28 13:12:15;;;;;;;22.83;16.37;;;16.20;84.50;;;;;;5064166;28;20615;-66
2023/04/28 13:14:46;;;;;;;19.33;15.53;;;16.20;84.50;;;;;;5067251;28;20556;-65
2023/04/28 13:17:27;;;;;;;23.50;15.03;;;16.30;84.50;;;;;;5066846;28;20473;-65
2023/04/28 13:20:13;;;;;;;16.43;13.70;;;16.30;84.50;;;;;;5067275;28;21034;-65
2023/04/28 13:22:47;;;;;;;16.80;13.90;;;16.40;84.50;;;;;;5067197;28;20950;-65
2023/04/28 13:25:19;;;;;;;18.70;14.47;;;16.40;84.50;;;;;;5065915;28;21059;-65
2023/04/28 13:27:57;;;;;;;16.17;13.47;;;16.40;84.50;;;;;;5068674;28;20450;-65
2023/04/28 13:30:38;;;;;;;52.67;40.50;;;16.40;84.50;;;;;;5063889;28;20961;-65
2023/04/28 13:33:10;;;;;;;25.43;20.43;;;16.40;84.60;;;;;;5063399;28;20871;-65
2023/04/28 13:35:44;;;;;;;19.57;16.03;;;16.50;84.50;;;;;;5067020;28;20462;-65